Time;durP1;ratioP1;P1;durP2;ratioP2;P2;SDS_P1;SDS_P2;PMS_P1;PMS_P2;Temp;Humidity;BMP_temperature;BMP_pressure;BME280_temperature;BME280_humidity;BME280_pressure;Samples;Min_cycle;Max_cycle;Signal;HPM_P1;HPM_P2
2021/12/18 00:01:14;;;;;;;87.45;31.00;;;;;;;7.28;100.00;103483.00;5028108;28;20722;-83
2021/12/18 00:03:40;;;;;;;79.03;31.13;;;;;;;7.26;100.00;103476.84;5011860;28;20033;-82
2021/12/18 00:06:05;;;;;;;85.97;31.52;;;;;;;7.26;100.00;103479.53;5013021;28;20478;-82
2021/12/18 00:08:31;;;;;;;78.43;30.52;;;;;;;7.26;100.00;103484.88;5033828;28;20049;-82
2021/12/18 00:10:56;;;;;;;70.85;29.10;;;;;;;7.26;100.00;103481.34;5032639;28;20395;-83
2021/12/18 00:13:23;;;;;;;77.25;31.45;;;;;;;7.25;100.00;103472.47;5031863;28;20127;-83
2021/12/18 00:15:49;;;;;;;73.10;29.65;;;;;;;7.26;100.00;103476.84;5024819;28;20038;-82
2021/12/18 00:18:15;;;;;;;72.68;27.63;;;;;;;7.26;100.00;103476.84;5032460;28;20102;-84
2021/12/18 00:20:44;;;;;;;76.07;29.73;;;;;;;7.27;100.00;103475.91;5031415;28;20042;-83
2021/12/18 00:23:09;;;;;;;75.28;28.77;;;;;;;7.25;100.00;103472.47;5030034;28;20056;-82
2021/12/18 00:25:35;;;;;;;74.57;29.05;;;;;;;7.25;100.00;103472.47;5032081;28;20045;-82
2021/12/18 00:28:00;;;;;;;80.70;29.02;;;;;;;7.25;100.00;103475.13;5028067;28;20076;-82
2021/12/18 00:30:27;;;;;;;83.28;30.40;;;;;;;7.26;100.00;103476.84;5028459;28;20046;-83
2021/12/18 00:32:57;;;;;;;70.13;27.30;;;;;;;7.26;100.00;103474.19;5028556;28;20053;-83
2021/12/18 00:35:23;;;;;;;69.57;27.85;;;;;;;7.25;100.00;103464.44;5035811;28;20037;-83
2021/12/18 00:37:48;;;;;;;72.75;27.40;;;;;;;7.24;100.00;103460.03;5022836;28;20486;-82
2021/12/18 00:40:22;;;;;;;66.50;24.80;;;;;;;7.24;100.00;103466.22;5028117;28;20106;-82
2021/12/18 00:42:59;;;;;;;57.95;23.58;;;;;;;7.22;100.00;103457.44;5027969;28;20038;-83
2021/12/18 00:45:28;;;;;;;67.97;23.17;;;;;;;7.22;100.00;103460.13;4992600;28;22001;-82
2021/12/18 00:47:54;;;;;;;60.95;23.92;;;;;;;7.23;100.00;103450.28;5021717;28;20045;-83
2021/12/18 00:50:24;;;;;;;58.83;22.30;;;;;;;7.22;100.00;103456.56;5027874;28;20106;-83
2021/12/18 00:52:50;;;;;;;56.28;23.08;;;;;;;7.22;100.00;103453.88;5039990;28;20033;-83
2021/12/18 00:55:19;;;;;;;66.60;26.92;;;;;;;7.23;100.00;103448.47;5029616;28;20037;-82
2021/12/18 00:57:52;;;;;;;56.10;22.35;;;;;;;7.22;100.00;103446.75;5027027;28;20099;-82
2021/12/18 01:00:23;;;;;;;49.78;18.20;;;;;;;7.20;100.00;103437.09;5023893;28;20377;-83
2021/12/18 01:02:55;;;;;;;52.83;21.05;;;;;;;7.18;100.00;103444.31;5024888;28;20091;-83
2021/12/18 01:05:22;;;;;;;36.33;15.95;;;;;;;7.16;100.00;103440.84;5024605;28;20481;-82
2021/12/18 01:07:55;;;;;;;38.00;16.23;;;;;;;7.17;100.00;103438.13;5042101;28;20053;-82
2021/12/18 01:13:09;;;;;;;33.05;14.38;;;;;;;7.18;100.00;103447.00;5027251;28;20516;-82
2021/12/18 01:15:41;;;;;;;33.65;14.88;;;;;;;7.18;100.00;103455.00;5036710;28;20581;-82
2021/12/18 01:23:36;;;;;;;33.22;13.82;;;;;;;7.19;100.00;103459.38;5043766;28;20091;-82
2021/12/18 01:26:05;;;;;;;32.80;14.27;;;;;;;7.18;100.00;103461.19;5028303;28;20045;-83
2021/12/18 01:28:32;;;;;;;29.53;13.87;;;;;;;7.19;100.00;103464.72;5047240;28;20048;-83
2021/12/18 01:30:59;;;;;;;31.33;13.68;;;;;;;7.19;100.00;103470.06;5029550;28;20291;-83
2021/12/18 01:33:28;;;;;;;32.05;13.98;;;;;;;7.19;100.00;103462.06;5029253;28;20036;-82
2021/12/18 01:35:54;;;;;;;33.03;14.55;;;;;;;7.20;100.00;103463.81;5048096;28;20428;-83
2021/12/18 01:38:22;;;;;;;36.15;14.70;;;;;;;7.18;100.00;103463.00;5026739;28;20037;-82
2021/12/18 01:40:48;;;;;;;35.72;14.32;;;;;;;7.18;100.00;103460.34;5027394;28;20053;-83
2021/12/18 01:51:23;;;;;;;39.50;15.40;;;;;;;7.16;100.00;103460.44;5046406;28;20063;-82
2021/12/18 01:53:54;;;;;;;36.63;14.25;;;;;;;7.15;100.00;103456.00;5028124;28;20163;-82
2021/12/18 01:56:23;;;;;;;36.63;14.23;;;;;;;7.15;100.00;103452.47;5012426;28;20041;-82
2021/12/18 01:58:49;;;;;;;;;;;;;;;7.15;100.00;103452.47;5048543;28;20528;-83
2021/12/18 02:01:16;;;;;;;39.60;14.35;;;;;;;7.08;100.00;103448.38;5029341;28;19916;-83
2021/12/18 02:03:42;;;;;;;39.90;15.45;;;;;;;7.09;100.00;103447.44;4993669;28;20041;-83
2021/12/18 02:06:13;;;;;;;38.40;14.18;;;;;;;7.11;100.00;103456.25;5035365;28;20044;-83
2021/12/18 02:08:43;;;;;;;44.65;15.00;;;;;;;7.11;100.00;103451.78;5029934;28;20075;-83
2021/12/18 02:11:16;;;;;;;45.47;15.98;;;;;;;7.11;100.00;103451.78;5027536;28;20045;-84
2021/12/18 02:22:02;;;;;;;44.63;15.65;;;;;;;7.08;100.00;103443.03;5038119;28;20044;-83
2021/12/18 02:24:31;;;;;;;47.17;16.70;;;;;;;7.06;100.00;103443.13;5009846;28;20540;-83
2021/12/18 02:26:58;;;;;;;44.97;15.40;;;;;;;7.08;100.00;103433.25;5040126;28;20517;-83
2021/12/18 02:29:24;;;;;;;51.88;17.15;;;;;;;7.09;100.00;103434.09;5020940;28;20140;-83
2021/12/18 02:31:51;;;;;;;54.00;16.77;;;;;;;7.08;100.00;103433.25;5023348;28;20502;-83
2021/12/18 02:34:24;;;;;;;53.08;16.85;;;;;;;7.08;100.00;103437.69;5020943;28;20034;-83
2021/12/18 02:36:52;;;;;;;56.58;17.15;;;;;;;7.08;100.00;103438.59;5008863;28;20057;-83
2021/12/18 02:39:41;;;;;;;53.42;17.77;;;;;;;7.08;100.00;103433.25;5022653;28;20088;-83
2021/12/18 02:42:19;;;;;;;57.03;16.63;;;;;;;7.08;100.00;103441.25;5023769;28;20068;-83
2021/12/18 02:44:47;;;;;;;72.38;20.98;;;;;;;7.08;100.00;103437.69;5014807;28;20544;-84
2021/12/18 02:47:13;;;;;;;62.00;19.30;;;;;;;7.07;100.00;103436.84;5023491;28;20037;-83
2021/12/18 02:49:47;;;;;;;68.10;19.20;;;;;;;7.08;100.00;103435.03;5016297;28;20045;-83
2021/12/18 02:52:15;;;;;;;68.47;19.15;;;;;;;7.08;100.00;103435.03;5033117;28;20072;-82
2021/12/18 02:54:41;;;;;;;67.35;19.40;;;;;;;7.07;100.00;103441.31;5019980;28;20042;-83
2021/12/18 02:57:07;;;;;;;63.15;18.67;;;;;;;7.07;100.00;103441.31;5025021;28;20452;-83
2021/12/18 02:59:47;;;;;;;60.92;19.90;;;;;;;7.08;100.00;103437.69;5025631;28;20045;-83
2021/12/18 03:02:14;;;;;;;51.72;18.52;;;;;;;7.07;100.00;103431.50;5001612;28;20112;-83
2021/12/18 03:04:42;;;;;;;59.03;19.65;;;;;;;7.06;100.00;103431.59;5024050;28;20722;-83
2021/12/18 03:07:14;;;;;;;59.50;18.70;;;;;;;7.04;100.00;103428.97;5023750;28;20128;-83
2021/12/18 03:23:37;;;;;;;62.70;18.52;;;;;;;6.96;100.00;103418.72;5044264;28;20094;-83
2021/12/18 03:26:04;;;;;;;68.68;18.98;;;;;;;6.96;100.00;103418.72;5042758;28;20076;-83
2021/12/18 03:28:30;;;;;;;73.78;19.75;;;;;;;6.98;100.00;103423.94;5025426;28;20033;-83
2021/12/18 03:30:56;;;;;;;69.28;18.80;;;;;;;6.96;100.00;103424.03;5022373;28;20045;-82
2021/12/18 03:33:26;;;;;;;63.60;19.48;;;;;;;6.96;100.00;103423.16;5040694;28;20091;-83
2021/12/18 03:35:52;;;;;;;61.72;18.63;;;;;;;6.90;100.00;103418.97;5046238;28;20037;-84
2021/12/18 03:38:18;;;;;;;67.35;19.33;;;;;;;6.92;100.00;103421.59;5014142;28;20044;-83
2021/12/18 03:40:43;;;;;;;67.25;17.73;;;;;;;6.91;100.00;103419.88;5029042;28;20099;-82
2021/12/18 03:43:11;;;;;;;74.43;19.88;;;;;;;6.90;100.00;103429.66;5051487;28;20071;-85
2021/12/18 03:45:42;;;;;;;67.90;17.67;;;;;;;6.88;100.00;103415.56;5047871;28;20560;-82
2021/12/18 03:48:08;;;;;;;68.28;18.35;;;;;;;6.88;100.00;103425.38;5029457;28;20041;-84
2021/12/18 03:50:33;;;;;;;69.80;18.85;;;;;;;6.88;100.00;103428.91;5030321;28;20079;-84
2021/12/18 03:52:59;;;;;;;76.20;19.92;;;;;;;6.88;100.00;103426.22;5030180;28;20068;-83
2021/12/18 03:55:26;;;;;;;56.47;17.00;;;;;;;6.85;100.00;103428.16;5047315;28;20041;-84
2021/12/18 03:57:52;;;;;;;63.33;17.95;;;;;;;6.81;100.00;103422.13;5042686;28;20038;-82
2021/12/18 04:00:18;;;;;;;71.63;19.52;;;;;;;6.80;100.00;103417.72;5030068;28;20037;-82
2021/12/18 04:02:44;;;;;;;67.32;18.63;;;;;;;6.80;100.00;103417.72;5048206;28;20823;-83
2021/12/18 04:05:10;;;;;;;83.78;20.90;;;;;;;6.80;100.00;103415.06;5032416;28;20079;-83
2021/12/18 04:07:42;;;;;;;80.65;21.52;;;;;;;6.79;100.00;103410.66;5030039;28;20047;-83
2021/12/18 04:10:12;;;;;;;77.50;19.40;;;;;;;6.77;100.00;103417.88;5027174;28;20064;-83
2021/12/18 04:12:39;;;;;;;85.60;21.83;;;;;;;6.79;100.00;103416.00;5049462;28;20041;-83
2021/12/18 04:15:05;;;;;;;65.88;18.50;;;;;;;6.79;100.00;103418.69;5028564;28;20088;-83
2021/12/18 04:17:32;;;;;;;45.92;15.68;;;;;;;6.76;100.00;103417.03;5031008;28;20501;-84
2021/12/18 04:19:59;;;;;;;48.72;14.70;;;;;;;6.73;100.00;103421.63;5029987;28;20049;-83
2021/12/18 04:22:25;;;;;;;41.42;13.90;;;;;;;6.69;100.00;103417.38;5045039;28;20045;-83
2021/12/18 04:24:52;;;;;;;36.25;13.13;;;;;;;6.64;100.00;103408.72;5032409;28;20037;-83
2021/12/18 04:27:17;;;;;;;38.58;13.35;;;;;;;6.61;100.00;103411.56;5013816;28;20037;-83
2021/12/18 04:29:42;;;;;;;38.40;11.85;;;;;;;6.59;100.00;103416.09;5029795;28;20052;-83
2021/12/18 04:32:08;;;;;;;37.38;12.60;;;;;;;6.58;100.00;103422.38;5026971;28;20044;-83
2021/12/18 04:34:34;;;;;;;39.83;11.98;;;;;;;6.57;100.00;103416.19;5010652;28;20046;-82
2021/12/18 04:37:01;;;;;;;35.80;11.23;;;;;;;6.58;100.00;103423.25;5025800;28;20057;-83
2021/12/18 04:39:26;;;;;;;35.50;11.75;;;;;;;6.58;100.00;103422.38;5026813;28;20095;-84
2021/12/18 04:41:57;;;;;;;36.17;11.60;;;;;;;6.55;100.00;103413.56;4996228;28;20144;-83
2021/12/18 04:44:23;;;;;;;36.03;11.60;;;;;;;6.54;100.00;103414.53;5027696;28;20052;-83
2021/12/18 04:46:48;;;;;;;33.17;10.63;;;;;;;6.52;100.00;103419.06;5026041;28;20037;-83
2021/12/18 04:49:15;;;;;;;38.33;11.48;;;;;;;6.50;100.00;103415.63;5027022;28;20363;-83
2021/12/18 04:51:41;;;;;;;41.40;12.48;;;;;;;6.51;100.00;103416.47;5026429;28;20723;-82
2021/12/18 04:54:07;;;;;;;39.92;12.32;;;;;;;6.50;100.00;103415.63;5025733;28;20046;-82
2021/12/18 04:56:33;;;;;;;46.20;13.80;;;;;;;6.49;100.00;103418.34;5042801;28;20037;-83
2021/12/18 04:58:58;;;;;;;46.13;14.02;;;;;;;6.49;100.00;103418.34;5029410;28;20041;-83
2021/12/18 05:01:23;;;;;;;49.28;14.07;;;;;;;6.50;100.00;103420.06;5023894;28;20469;-83
2021/12/18 05:03:49;;;;;;;51.50;14.52;;;;;;;6.51;100.00;103422.69;5004763;28;20064;-83
2021/12/18 05:06:15;;;;;;;42.30;12.95;;;;;;;6.49;100.00;103419.22;5006722;28;20057;-83
2021/12/18 05:08:41;;;;;;;36.85;12.13;;;;;;;6.49;100.00;103415.69;5025978;28;20033;-83
2021/12/18 05:11:07;;;;;;;35.10;11.23;;;;;;;6.47;100.00;103417.56;5023644;28;20048;-82
2021/12/18 05:13:32;;;;;;;32.30;10.63;;;;;;;6.44;100.00;103415.88;5027009;28;20046;-82
2021/12/18 05:15:58;;;;;;;24.13;8.98;;;;;;;6.38;100.00;103418.00;5026662;28;20428;-84
2021/12/18 05:18:26;;;;;;;24.10;7.90;;;;;;;6.35;100.00;103424.34;5001639;28;20037;-83
2021/12/18 05:20:53;;;;;;;38.60;16.75;;;;;;;6.33;100.00;103416.44;5009989;28;20453;-82
2021/12/18 05:23:18;;;;;;;28.00;10.52;;;;;;;6.34;100.00;103425.28;5025944;28;20390;-83
2021/12/18 05:25:44;;;;;;;26.80;11.20;;;;;;;6.35;100.00;103423.47;5023802;28;20041;-82
2021/12/18 05:28:11;;;;;;;33.00;11.85;;;;;;;6.34;100.00;103422.63;5021640;28;20718;-83
2021/12/18 05:30:37;;;;;;;29.83;12.23;;;;;;;6.33;100.00;103412.91;5027197;28;20053;-83
2021/12/18 05:33:04;;;;;;;43.85;23.23;;;;;;;6.32;100.00;103414.69;5023665;28;20041;-82
2021/12/18 05:35:31;;;;;;;38.92;20.45;;;;;;;6.31;100.00;103415.63;5018042;28;20502;-83
2021/12/18 05:38:04;;;;;;;35.10;14.18;;;;;;;6.29;100.00;103419.28;5033544;28;20049;-82
2021/12/18 05:40:33;;;;;;;36.17;15.27;;;;;;;6.26;100.00;103417.63;5028136;28;20095;-82
2021/12/18 05:42:59;;;;;;;42.60;17.90;;;;;;;6.27;100.00;103415.81;5026003;28;20488;-83
2021/12/18 05:45:25;;;;;;;43.42;18.00;;;;;;;6.25;100.00;103423.06;5030088;28;20163;-83
2021/12/18 05:47:51;;;;;;;35.47;12.60;;;;;;;6.22;100.00;103424.06;5029687;28;20053;-83
2021/12/18 05:50:19;;;;;;;31.25;8.93;;;;;;;6.21;100.00;103418.78;5021297;28;20057;-83
2021/12/18 05:52:45;;;;;;;40.47;12.35;;;;;;;6.20;100.00;103433.06;5022982;28;20551;-83
2021/12/18 05:55:12;;;;;;;56.13;17.85;;;;;;;6.16;100.00;103432.34;5021535;28;20507;-83
2021/12/18 05:57:42;;;;;;;48.33;17.75;;;;;;;6.16;100.00;103436.78;5026785;28;20045;-83
2021/12/18 06:00:09;;;;;;;48.70;15.50;;;;;;;6.17;100.00;103430.53;5026137;28;20561;-83
2021/12/18 06:02:34;;;;;;;34.38;12.77;;;;;;;6.13;100.00;103426.28;5023650;28;20437;-83
2021/12/18 06:05:00;;;;;;;40.67;10.25;;;;;;;6.14;100.00;103434.22;5028021;28;20048;-82
2021/12/18 06:07:30;;;;;;;46.85;14.63;;;;;;;6.15;100.00;103437.75;5030352;28;20050;-83
2021/12/18 06:09:57;;;;;;;37.25;8.57;;;;;;;6.12;100.00;103438.75;5027558;28;20041;-82
2021/12/18 06:12:22;;;;;;;23.83;7.75;;;;;;;6.06;100.00;103439.88;5006853;28;20157;-83
2021/12/18 06:14:48;;;;;;;25.25;8.48;;;;;;;6.05;100.00;103446.16;5028228;28;20132;-83
2021/12/18 06:17:13;;;;;;;24.40;6.45;;;;;;;6.02;100.00;103443.63;5026889;28;20046;-83
2021/12/18 06:19:39;;;;;;;25.45;7.05;;;;;;;5.96;100.00;103441.25;5028327;28;20033;-83
2021/12/18 06:22:04;;;;;;;21.20;5.43;;;;;;;5.94;100.00;103447.59;5028522;28;20084;-83
2021/12/18 06:24:29;;;;;;;19.05;5.57;;;;;;;5.89;100.00;103445.94;5028631;28;20044;-83
2021/12/18 06:26:58;;;;;;;20.23;6.10;;;;;;;5.86;100.00;103445.22;5029214;28;20033;-84
2021/12/18 06:29:23;;;;;;;17.50;6.32;;;;;;;5.88;100.00;103448.69;5025076;28;20049;-84
2021/12/18 06:31:49;;;;;;;30.58;8.13;;;;;;;5.84;100.00;103447.09;5029154;28;20512;-84
2021/12/18 06:34:16;;;;;;;32.15;7.60;;;;;;;5.85;100.00;103447.03;5028212;28;20041;-83
2021/12/18 06:36:41;;;;;;;25.55;8.38;;;;;;;5.84;100.00;103447.09;5009434;28;20129;-83
2021/12/18 06:39:07;;;;;;;20.10;7.07;;;;;;;5.80;100.00;103453.50;5028534;28;20690;-83
2021/12/18 06:41:32;;;;;;;18.45;6.13;;;;;;;5.77;100.00;103457.16;5028634;28;20076;-83
2021/12/18 06:43:58;;;;;;;18.85;6.10;;;;;;;5.77;100.00;103450.97;5024758;28;20049;-83
2021/12/18 06:46:23;;;;;;;17.52;5.72;;;;;;;5.73;100.00;103450.25;5024745;28;20132;-83
2021/12/18 06:48:49;;;;;;;14.90;5.97;;;;;;;5.74;100.00;103451.09;5022280;28;20118;-83
2021/12/18 06:51:18;;;;;;;17.58;5.93;;;;;;;5.74;100.00;103453.78;5041605;28;20149;-84
2021/12/18 06:53:44;;;;;;;14.95;4.63;;;;;;;5.75;100.00;103455.50;5024014;28;20046;-82
2021/12/18 06:56:09;;;;;;;19.42;5.40;;;;;;;5.71;100.00;103444.13;5020148;28;20382;-83
2021/12/18 06:58:35;;;;;;;17.27;5.70;;;;;;;5.74;100.00;103451.09;5007901;28;20050;-83
2021/12/18 07:01:00;;;;;;;15.57;4.68;;;;;;;5.69;100.00;103455.78;5018116;28;20041;-83
2021/12/18 07:03:27;;;;;;;13.65;4.95;;;;;;;5.69;100.00;103453.97;5022691;28;20064;-83
2021/12/18 07:05:52;;;;;;;14.30;4.43;;;;;;;5.64;100.00;103446.19;5022033;28;20026;-83
2021/12/18 07:08:18;;;;;;;14.50;4.70;;;;;;;5.69;100.00;103445.13;5042199;28;20049;-83
2021/12/18 07:10:44;;;;;;;12.52;4.28;;;;;;;5.68;100.00;103440.72;5032988;28;20153;-83
2021/12/18 07:13:09;;;;;;;12.85;4.47;;;;;;;5.64;100.00;103446.19;5040812;28;20042;-83
2021/12/18 07:15:35;;;;;;;13.55;4.10;;;;;;;5.68;100.00;103443.41;5027402;28;20427;-83
2021/12/18 07:18:01;;;;;;;14.65;4.70;;;;;;;5.69;100.00;103442.44;5020801;28;20637;-83
2021/12/18 07:20:27;;;;;;;14.82;4.97;;;;;;;5.69;100.00;103442.44;5025225;28;20544;-83
2021/12/18 07:22:53;;;;;;;15.43;4.68;;;;;;;5.66;100.00;103438.97;5010270;28;20148;-83
2021/12/18 07:25:19;;;;;;;15.93;5.65;;;;;;;5.71;100.00;103445.91;5036019;28;20510;-84
2021/12/18 07:27:45;;;;;;;16.67;5.75;;;;;;;5.72;100.00;103452.97;5010522;28;20057;-84
2021/12/18 07:30:12;;;;;;;17.02;6.03;;;;;;;5.72;100.00;103447.63;5021829;28;20136;-84
2021/12/18 07:32:38;;;;;;;19.05;5.78;;;;;;;5.72;100.00;103447.63;5008261;28;20516;-84
2021/12/18 07:35:05;;;;;;;23.65;6.75;;;;;;;5.68;100.00;103448.72;5024472;28;20038;-84
2021/12/18 07:37:30;;;;;;;20.30;7.43;;;;;;;5.65;100.00;103447.91;5022199;28;20107;-84
2021/12/18 07:39:56;;;;;;;21.30;7.32;;;;;;;5.65;100.00;103455.91;5023835;28;20247;-84
2021/12/18 07:42:21;;;;;;;19.40;6.88;;;;;;;5.64;100.00;103454.19;5024451;28;20498;-84
2021/12/18 07:44:47;;;;;;;28.60;7.90;;;;;;;5.60;100.00;103449.91;5024729;28;20122;-84
2021/12/18 07:47:13;;;;;;;28.35;7.43;;;;;;;5.56;100.00;103453.66;5022462;28;20045;-84
2021/12/18 07:49:41;;;;;;;30.23;8.98;;;;;;;5.56;100.00;103455.47;4997403;28;20045;-84
2021/12/18 07:52:07;;;;;;;38.22;10.15;;;;;;;5.56;100.00;103456.31;5007484;28;20342;-84
2021/12/18 07:54:33;;;;;;;35.20;11.45;;;;;;;5.56;100.00;103456.31;5026429;28;20493;-84
2021/12/18 07:56:59;;;;;;;34.78;10.68;;;;;;;5.58;100.00;103456.22;5027782;28;20061;-84
2021/12/18 07:59:24;;;;;;;36.55;11.75;;;;;;;5.57;100.00;103457.19;5025440;28;20168;-84
2021/12/18 08:01:50;;;;;;;30.38;8.52;;;;;;;5.54;100.00;103455.50;5024003;28;20037;-84
2021/12/18 08:04:15;;;;;;;24.15;7.38;;;;;;;5.53;100.00;103450.25;5018980;28;20050;-84
2021/12/18 08:06:41;;;;;;;29.58;8.73;;;;;;;5.54;100.00;103449.31;5009396;28;20049;-84
2021/12/18 08:09:06;;;;;;;25.75;10.07;;;;;;;5.54;100.00;103455.50;5023688;28;20108;-84
2021/12/18 08:11:31;;;;;;;27.60;8.20;;;;;;;5.53;100.00;103447.59;5023475;28;20506;-84
2021/12/18 08:13:57;;;;;;;29.17;9.02;;;;;;;5.51;100.00;103444.13;5025588;28;20056;-84
2021/12/18 08:16:22;;;;;;;26.75;8.18;;;;;;;5.50;100.00;103453.06;5026330;28;20455;-84
2021/12/18 08:18:48;;;;;;;21.98;6.20;;;;;;;5.50;100.00;103437.09;5027003;28;20073;-84
2021/12/18 08:21:14;;;;;;;21.30;7.78;;;;;;;5.50;100.00;103442.41;5020776;28;20041;-84
2021/12/18 08:23:40;;;;;;;22.35;6.57;;;;;;;5.52;100.00;103441.38;5022941;28;20076;-85
2021/12/18 08:26:07;;;;;;;21.83;6.88;;;;;;;5.50;100.00;103439.75;5018182;28;20073;-85
2021/12/18 08:28:32;;;;;;;20.30;6.85;;;;;;;5.48;100.00;103441.59;5031321;28;20041;-85
2021/12/18 08:30:58;;;;;;;22.42;8.30;;;;;;;5.49;100.00;103446.84;5028786;28;20065;-85
2021/12/18 08:33:24;;;;;;;26.50;10.00;;;;;;;5.47;100.00;103446.06;5009343;28;20083;-85
2021/12/18 08:35:49;;;;;;;22.38;10.18;;;;;;;5.47;100.00;103448.72;5025627;28;20067;-85
2021/12/18 08:38:15;;;;;;;21.55;10.77;;;;;;;5.43;100.00;103447.97;5027732;28;22028;-85
2021/12/18 08:40:42;;;;;;;12.10;5.70;;;;;;;5.45;100.00;103457.72;5011942;28;20041;-85
2021/12/18 08:43:07;;;;;;;14.18;7.55;;;;;;;5.42;100.00;103459.56;5010357;28;20482;-85
2021/12/18 08:45:33;;;;;;;16.45;6.10;;;;;;;5.41;100.00;103457.00;5032607;28;20056;-85
2021/12/18 08:47:58;;;;;;;9.32;4.20;;;;;;;5.39;100.00;103464.16;5025185;28;20046;-85
2021/12/18 08:50:24;;;;;;;8.82;3.28;;;;;;;5.33;100.00;103456.44;5024820;28;20147;-84
2021/12/18 08:52:50;;;;;;;9.05;3.63;;;;;;;5.34;100.00;103453.69;5029178;28;20038;-84
2021/12/18 08:55:17;;;;;;;9.02;3.45;;;;;;;5.31;100.00;103455.63;5024603;28;20669;-85
2021/12/18 08:57:43;;;;;;;8.18;3.53;;;;;;;5.27;100.00;103446.91;5028345;28;20049;-84
2021/12/18 09:00:13;;;;;;;10.27;5.93;;;;;;;5.27;100.00;103440.72;5029064;28;20071;-84
2021/12/18 09:02:42;;;;;;;8.48;4.68;;;;;;;5.25;100.00;103437.25;5028477;28;20060;-84
2021/12/18 09:05:10;;;;;;;14.80;8.80;;;;;;;5.32;100.00;103446.69;5028214;28;20436;-85
2021/12/18 09:07:35;;;;;;;13.32;9.80;;;;;;;5.36;100.00;103443.00;5037280;28;20528;-85
2021/12/18 09:10:01;;;;;;;11.40;6.05;;;;;;;5.34;100.00;103445.72;5040272;28;20506;-85
2021/12/18 09:12:26;;;;;;;12.75;7.90;;;;;;;5.33;100.00;103449.31;5025971;28;20731;-85
2021/12/18 09:14:52;;;;;;;11.57;5.20;;;;;;;5.33;100.00;103448.44;5024722;28;20057;-84
2021/12/18 09:17:18;;;;;;;14.27;7.57;;;;;;;5.36;100.00;103446.53;5037675;28;20037;-85
2021/12/18 09:19:43;;;;;;;9.65;6.30;;;;;;;5.32;100.00;103446.69;5024753;28;20383;-84
2021/12/18 09:22:09;;;;;;;14.68;5.03;;;;;;;5.31;100.00;103442.31;5019248;28;20034;-84
2021/12/18 09:24:35;;;;;;;11.85;6.07;;;;;;;5.27;100.00;103449.56;5013439;28;20045;-85
2021/12/18 09:27:02;;;;;;;7.05;3.42;;;;;;;5.24;100.00;103449.72;5022636;28;20037;-84
2021/12/18 09:29:27;;;;;;;6.80;4.47;;;;;;;5.19;100.00;103455.22;4988164;28;20233;-84
2021/12/18 09:31:52;;;;;;;10.02;6.07;;;;;;;5.20;100.00;103451.59;5029688;28;20073;-84
2021/12/18 09:34:18;;;;;;;7.28;5.15;;;;;;;5.20;100.00;103448.09;5033101;28;20065;-85
2021/12/18 09:36:43;;;;;;;7.60;4.80;;;;;;;5.23;100.00;103449.75;5031681;28;20072;-84
2021/12/18 09:39:09;;;;;;;6.78;3.55;;;;;;;5.30;100.00;103448.59;5024819;28;20041;-84
2021/12/18 09:41:36;;;;;;;5.18;2.97;;;;;;;5.31;100.00;103453.81;5024043;28;20064;-84
2021/12/18 09:44:02;;;;;;;6.22;2.92;;;;;;;5.36;100.00;103453.66;5027387;28;20099;-85
2021/12/18 09:46:30;;;;;;;7.05;3.55;;;;;;;5.42;100.00;103451.56;5007268;28;20106;-84
2021/12/18 09:48:57;;;;;;;5.60;3.13;;;;;;;5.40;100.00;103457.91;5037418;28;20052;-85
2021/12/18 09:51:27;;;;;;;10.00;5.47;;;;;;;5.41;100.00;103455.19;5021024;28;20478;-84
2021/12/18 09:53:54;;;;;;;11.23;5.60;;;;;;;5.43;100.00;103455.09;5044006;28;20357;-84
2021/12/18 09:56:20;;;;;;;9.23;4.60;;;;;;;5.44;100.00;103454.19;5009889;28;20497;-84
2021/12/18 09:58:46;;;;;;;9.40;4.90;;;;;;;5.45;100.00;103455.06;5028948;28;20399;-84
2021/12/18 10:01:11;;;;;;;8.60;5.10;;;;;;;5.48;100.00;103455.78;5019132;28;20079;-84
2021/12/18 10:03:48;;;;;;;9.02;4.40;;;;;;;5.52;100.00;103451.19;5020011;28;20545;-85
2021/12/18 10:06:44;;;;;;;8.95;5.53;;;;;;;5.49;100.00;103445.97;5032951;28;20057;-85
2021/12/18 10:09:18;;;;;;;10.85;6.97;;;;;;;5.51;100.00;103445.00;5022663;28;20073;-85
2021/12/18 10:12:11;;;;;;;10.35;5.78;;;;;;;5.55;100.00;103438.63;5019760;28;20038;-85
2021/12/18 10:14:39;;;;;;;11.63;7.50;;;;;;;5.54;100.00;103439.53;5018227;28;20217;-85
2021/12/18 10:17:19;;;;;;;10.90;6.50;;;;;;;5.57;100.00;103439.38;5024280;28;20486;-86
2021/12/18 10:19:44;;;;;;;10.20;5.90;;;;;;;5.57;100.00;103438.53;5031749;28;20280;-86
2021/12/18 10:22:11;;;;;;;9.82;5.43;;;;;;;5.62;100.00;103436.53;5010874;28;20386;-86
2021/12/18 10:24:40;;;;;;;8.73;4.38;;;;;;;5.60;100.00;103439.25;5027435;28;20052;-85
2021/12/18 10:27:23;;;;;;;10.93;5.90;;;;;;;5.57;100.00;103430.53;5010748;28;20045;-86
2021/12/18 10:29:51;;;;;;;12.43;6.65;;;;;;;5.53;100.00;103429.81;5010360;28;20118;-86
2021/12/18 10:32:19;;;;;;;12.83;6.10;;;;;;;5.55;100.00;103422.63;5026797;28;20038;-86
2021/12/18 10:34:56;;;;;;;12.55;5.38;;;;;;;5.47;100.00;103427.41;5011455;28;20041;-86
2021/12/18 10:37:25;;;;;;;11.32;5.38;;;;;;;5.50;100.00;103421.09;5023925;28;20044;-86
2021/12/18 10:39:50;;;;;;;16.05;6.80;;;;;;;5.47;100.00;103429.19;5044981;28;20513;-86
2021/12/18 10:42:36;;;;;;;15.55;6.68;;;;;;;5.51;100.00;103421.00;5027400;28;20057;-86
2021/12/18 10:45:21;;;;;;;16.25;7.32;;;;;;;5.55;100.00;103425.28;5027256;28;20171;-86
2021/12/18 10:48:03;;;;;;;18.00;8.55;;;;;;;5.58;100.00;103417.16;5010501;28;20092;-85
2021/12/18 10:50:40;;;;;;;15.48;7.68;;;;;;;5.57;100.00;103415.41;5041572;28;20057;-86
2021/12/18 10:53:09;;;;;;;15.52;7.10;;;;;;;5.53;100.00;103416.50;5041942;28;20125;-86
2021/12/18 10:55:36;;;;;;;20.60;8.50;;;;;;;5.57;100.00;103414.56;5028523;28;20041;-86
2021/12/18 10:58:04;;;;;;;17.77;7.68;;;;;;;5.59;100.00;103410.03;5028327;28;20092;-85
2021/12/18 11:00:34;;;;;;;17.10;8.23;;;;;;;5.56;100.00;103410.16;5024046;28;20124;-86
2021/12/18 11:03:16;;;;;;;16.88;8.05;;;;;;;5.52;100.00;103406.75;5028469;28;20279;-86
2021/12/18 11:05:42;;;;;;;15.07;7.50;;;;;;;5.53;100.00;103400.50;5028696;28;20056;-85
2021/12/18 11:08:09;;;;;;;17.10;9.95;;;;;;;5.51;100.00;103399.72;5015599;28;20033;-85
2021/12/18 11:15:51;;;;;;;15.18;8.48;;;;;;;5.59;100.00;103397.56;5030274;28;20137;-86
2021/12/18 11:18:18;;;;;;;17.15;8.73;;;;;;;5.65;100.00;103388.44;5047978;28;20124;-85
2021/12/18 11:20:46;;;;;;;16.30;8.98;;;;;;;5.61;100.00;103387.72;5043420;28;20033;-84
2021/12/18 11:23:12;;;;;;;17.00;7.93;;;;;;;5.70;100.00;103386.44;5030311;28;20482;-86
2021/12/18 11:25:39;;;;;;;18.48;8.85;;;;;;;5.66;100.00;103384.84;5039964;28;20045;-85
2021/12/18 11:28:06;;;;;;;15.98;6.97;;;;;;;5.58;100.00;103381.66;5011653;28;20045;-86
2021/12/18 11:30:32;;;;;;;16.52;8.43;;;;;;;5.59;100.00;103378.06;5031972;28;20044;-85
2021/12/18 11:32:57;;;;;;;17.75;9.18;;;;;;;5.66;100.00;103375.03;5025269;28;20103;-86
2021/12/18 11:35:23;;;;;;;19.25;9.10;;;;;;;5.71;100.00;103382.84;5024107;28;20033;-86
2021/12/18 11:37:54;;;;;;;20.70;10.05;;;;;;;5.71;100.00;103368.66;5009232;28;20041;-86
2021/12/18 11:40:24;;;;;;;16.70;9.95;;;;;;;5.77;100.00;103371.03;5020560;28;20033;-85
2021/12/18 11:42:50;;;;;;;24.02;12.30;;;;;;;5.82;100.00;103372.56;5016204;28;20370;-86
2021/12/18 11:45:15;;;;;;;16.35;9.40;;;;;;;5.85;100.00;103363.56;5015837;28;20044;-86
2021/12/18 11:47:53;;;;;;;15.23;7.90;;;;;;;5.79;100.00;103363.84;5016255;28;20490;-86
2021/12/18 11:50:37;;;;;;;15.15;8.90;;;;;;;5.79;100.00;103363.84;5041958;28;20042;-86
2021/12/18 11:53:02;;;;;;;11.95;6.53;;;;;;;5.76;100.00;103356.84;5037795;28;20048;-85
2021/12/18 11:55:49;;;;;;;14.80;7.95;;;;;;;5.80;100.00;103360.22;5037773;28;20033;-85
2021/12/18 11:58:18;;;;;;;15.13;8.88;;;;;;;5.77;100.00;103363.91;5047596;28;20242;-86
2021/12/18 12:00:51;;;;;;;;;;;;;;;5.83;100.00;103360.09;5011943;28;20490;-85